sensor_id;sensor_type;location;lat;lon;timestamp;P1;durP1;ratioP1;P2;durP2;ratioP2
44772;SDS011;30492;52.088;5.122;2022-09-13T00:01:50;8.88;;;6.88;;
44772;SDS011;30492;52.088;5.122;2022-09-13T00:04:59;9.73;;;5.90;;
44772;SDS011;30492;52.088;5.122;2022-09-13T00:08:07;9.68;;;5.82;;
44772;SDS011;30492;52.088;5.122;2022-09-13T00:11:17;9.50;;;6.60;;
44772;SDS011;30492;52.088;5.122;2022-09-13T00:14:26;11.43;;;5.97;;
44772;SDS011;30492;52.088;5.122;2022-09-13T00:17:32;7.22;;;5.63;;
44772;SDS011;30492;52.088;5.122;2022-09-13T00:20:38;11.52;;;6.50;;
44772;SDS011;30492;52.088;5.122;2022-09-13T00:23:44;8.98;;;6.18;;
44772;SDS011;30492;52.088;5.122;2022-09-13T00:26:50;9.15;;;5.93;;
44772;SDS011;30492;52.088;5.122;2022-09-13T00:30:00;7.43;;;5.20;;
44772;SDS011;30492;52.088;5.122;2022-09-13T00:33:07;8.70;;;6.53;;
44772;SDS011;30492;52.088;5.122;2022-09-13T00:36:19;9.25;;;6.20;;
44772;SDS011;30492;52.088;5.122;2022-09-13T00:39:31;10.18;;;6.85;;
44772;SDS011;30492;52.088;5.122;2022-09-13T00:42:38;13.55;;;7.32;;
44772;SDS011;30492;52.088;5.122;2022-09-13T00:45:47;11.20;;;6.50;;
44772;SDS011;30492;52.088;5.122;2022-09-13T00:49:07;8.80;;;5.22;;
44772;SDS011;30492;52.088;5.122;2022-09-13T00:52:28;7.82;;;6.15;;
44772;SDS011;30492;52.088;5.122;2022-09-13T00:55:46;10.70;;;7.20;;
44772;SDS011;30492;52.088;5.122;2022-09-13T00:58:56;8.32;;;6.13;;
44772;SDS011;30492;52.088;5.122;2022-09-13T01:02:12;7.28;;;6.00;;
44772;SDS011;30492;52.088;5.122;2022-09-13T01:05:23;10.23;;;7.38;;
44772;SDS011;30492;52.088;5.122;2022-09-13T01:08:31;13.57;;;7.00;;
44772;SDS011;30492;52.088;5.122;2022-09-13T01:11:41;8.52;;;7.18;;
44772;SDS011;30492;52.088;5.122;2022-09-13T01:14:55;9.93;;;7.15;;
44772;SDS011;30492;52.088;5.122;2022-09-13T01:18:16;8.38;;;6.82;;
44772;SDS011;30492;52.088;5.122;2022-09-13T01:25:18;15.55;;;12.25;;
44772;SDS011;30492;52.088;5.122;2022-09-13T01:28:47;14.32;;;10.55;;
44772;SDS011;30492;52.088;5.122;2022-09-13T01:32:06;11.75;;;9.95;;
44772;SDS011;30492;52.088;5.122;2022-09-13T01:35:21;12.85;;;9.80;;
44772;SDS011;30492;52.088;5.122;2022-09-13T01:38:41;13.38;;;10.38;;
44772;SDS011;30492;52.088;5.122;2022-09-13T01:42:00;11.82;;;9.70;;
44772;SDS011;30492;52.088;5.122;2022-09-13T01:45:20;14.45;;;10.85;;
44772;SDS011;30492;52.088;5.122;2022-09-13T01:48:42;12.90;;;9.27;;
44772;SDS011;30492;52.088;5.122;2022-09-13T01:52:04;15.98;;;9.60;;
44772;SDS011;30492;52.088;5.122;2022-09-13T01:55:21;11.95;;;8.32;;
44772;SDS011;30492;52.088;5.122;2022-09-13T01:58:35;12.75;;;8.57;;
44772;SDS011;30492;52.088;5.122;2022-09-13T02:01:48;14.80;;;10.18;;
44772;SDS011;30492;52.088;5.122;2022-09-13T02:05:09;15.50;;;9.98;;
44772;SDS011;30492;52.088;5.122;2022-09-13T02:08:24;13.50;;;11.45;;
44772;SDS011;30492;52.088;5.122;2022-09-13T02:11:43;16.92;;;11.10;;
44772;SDS011;30492;52.088;5.122;2022-09-13T02:18:26;18.15;;;12.75;;
44772;SDS011;30492;52.088;5.122;2022-09-13T02:21:38;18.27;;;13.18;;
44772;SDS011;30492;52.088;5.122;2022-09-13T02:25:03;16.85;;;13.15;;
44772;SDS011;30492;52.088;5.122;2022-09-13T02:28:13;18.17;;;12.50;;
44772;SDS011;30492;52.088;5.122;2022-09-13T02:31:25;21.80;;;14.75;;
44772;SDS011;30492;52.088;5.122;2022-09-13T02:34:35;19.75;;;14.95;;
44772;SDS011;30492;52.088;5.122;2022-09-13T02:38:01;20.27;;;14.95;;
44772;SDS011;30492;52.088;5.122;2022-09-13T02:41:15;20.65;;;15.90;;
44772;SDS011;30492;52.088;5.122;2022-09-13T02:44:30;18.20;;;13.40;;
44772;SDS011;30492;52.088;5.122;2022-09-13T02:47:55;15.38;;;11.98;;
44772;SDS011;30492;52.088;5.122;2022-09-13T02:51:05;21.25;;;14.85;;
44772;SDS011;30492;52.088;5.122;2022-09-13T02:54:24;18.95;;;15.70;;
44772;SDS011;30492;52.088;5.122;2022-09-13T02:57:37;23.33;;;17.33;;
44772;SDS011;30492;52.088;5.122;2022-09-13T03:00:47;24.15;;;18.38;;
44772;SDS011;30492;52.088;5.122;2022-09-13T03:03:52;26.20;;;19.85;;
44772;SDS011;30492;52.088;5.122;2022-09-13T03:06:57;26.38;;;21.13;;
44772;SDS011;30492;52.088;5.122;2022-09-13T03:10:04;28.48;;;21.25;;
44772;SDS011;30492;52.088;5.122;2022-09-13T03:16:57;28.90;;;21.77;;
44772;SDS011;30492;52.088;5.122;2022-09-13T03:20:20;28.63;;;21.88;;
44772;SDS011;30492;52.088;5.122;2022-09-13T03:23:34;34.13;;;23.38;;
44772;SDS011;30492;52.088;5.122;2022-09-13T03:26:56;32.47;;;22.20;;
44772;SDS011;30492;52.088;5.122;2022-09-13T03:30:14;33.13;;;23.05;;
44772;SDS011;30492;52.088;5.122;2022-09-13T03:33:23;29.70;;;21.13;;
44772;SDS011;30492;52.088;5.122;2022-09-13T03:36:36;29.75;;;21.88;;
44772;SDS011;30492;52.088;5.122;2022-09-13T03:39:51;29.40;;;21.55;;
44772;SDS011;30492;52.088;5.122;2022-09-13T03:43:03;33.22;;;22.20;;
44772;SDS011;30492;52.088;5.122;2022-09-13T03:46:14;34.50;;;22.98;;
44772;SDS011;30492;52.088;5.122;2022-09-13T03:49:26;31.40;;;22.40;;
44772;SDS011;30492;52.088;5.122;2022-09-13T03:52:33;24.30;;;19.23;;
44772;SDS011;30492;52.088;5.122;2022-09-13T03:55:41;26.38;;;20.00;;
44772;SDS011;30492;52.088;5.122;2022-09-13T03:58:48;26.52;;;20.05;;
44772;SDS011;30492;52.088;5.122;2022-09-13T04:02:04;31.38;;;20.50;;
44772;SDS011;30492;52.088;5.122;2022-09-13T04:05:12;27.27;;;20.13;;
44772;SDS011;30492;52.088;5.122;2022-09-13T04:08:17;31.35;;;21.08;;
44772;SDS011;30492;52.088;5.122;2022-09-13T04:11:23;26.13;;;20.52;;
44772;SDS011;30492;52.088;5.122;2022-09-13T04:14:30;29.80;;;21.23;;
44772;SDS011;30492;52.088;5.122;2022-09-13T04:17:35;26.63;;;20.38;;
44772;SDS011;30492;52.088;5.122;2022-09-13T04:20:43;34.30;;;20.88;;
44772;SDS011;30492;52.088;5.122;2022-09-13T04:23:58;33.33;;;21.88;;
44772;SDS011;30492;52.088;5.122;2022-09-13T04:27:06;33.78;;;21.23;;
44772;SDS011;30492;52.088;5.122;2022-09-13T04:30:12;25.33;;;18.90;;
44772;SDS011;30492;52.088;5.122;2022-09-13T04:33:17;26.67;;;20.15;;
44772;SDS011;30492;52.088;5.122;2022-09-13T04:36:23;28.55;;;20.52;;
44772;SDS011;30492;52.088;5.122;2022-09-13T04:39:29;29.42;;;21.48;;
44772;SDS011;30492;52.088;5.122;2022-09-13T04:42:42;32.30;;;21.55;;
44772;SDS011;30492;52.088;5.122;2022-09-13T04:45:52;31.65;;;20.95;;
44772;SDS011;30492;52.088;5.122;2022-09-13T04:49:08;30.70;;;21.77;;
44772;SDS011;30492;52.088;5.122;2022-09-13T04:52:16;28.13;;;19.00;;
44772;SDS011;30492;52.088;5.122;2022-09-13T04:55:24;31.40;;;22.50;;
44772;SDS011;30492;52.088;5.122;2022-09-13T04:58:29;30.23;;;20.92;;
44772;SDS011;30492;52.088;5.122;2022-09-13T05:01:49;31.38;;;21.98;;
44772;SDS011;30492;52.088;5.122;2022-09-13T05:05:01;30.40;;;20.20;;
44772;SDS011;30492;52.088;5.122;2022-09-13T05:08:09;27.95;;;21.42;;
44772;SDS011;30492;52.088;5.122;2022-09-13T05:11:15;32.72;;;21.98;;
44772;SDS011;30492;52.088;5.122;2022-09-13T05:14:27;33.42;;;24.48;;
44772;SDS011;30492;52.088;5.122;2022-09-13T05:17:35;26.98;;;20.70;;
44772;SDS011;30492;52.088;5.122;2022-09-13T05:20:44;30.08;;;22.00;;
44772;SDS011;30492;52.088;5.122;2022-09-13T05:23:52;37.30;;;26.08;;
44772;SDS011;30492;52.088;5.122;2022-09-13T05:27:03;36.35;;;25.00;;
44772;SDS011;30492;52.088;5.122;2022-09-13T05:30:14;38.50;;;27.40;;
44772;SDS011;30492;52.088;5.122;2022-09-13T05:33:24;35.95;;;27.60;;
44772;SDS011;30492;52.088;5.122;2022-09-13T05:36:35;33.13;;;24.17;;
44772;SDS011;30492;52.088;5.122;2022-09-13T05:39:42;43.08;;;24.33;;
44772;SDS011;30492;52.088;5.122;2022-09-13T05:42:48;36.67;;;25.27;;
44772;SDS011;30492;52.088;5.122;2022-09-13T05:45:59;34.40;;;24.47;;
44772;SDS011;30492;52.088;5.122;2022-09-13T05:49:11;38.58;;;26.98;;
44772;SDS011;30492;52.088;5.122;2022-09-13T05:52:20;51.70;;;26.52;;
44772;SDS011;30492;52.088;5.122;2022-09-13T05:55:26;32.22;;;22.85;;
44772;SDS011;30492;52.088;5.122;2022-09-13T05:58:31;38.60;;;26.17;;
44772;SDS011;30492;52.088;5.122;2022-09-13T06:01:38;30.88;;;22.35;;
44772;SDS011;30492;52.088;5.122;2022-09-13T06:04:51;32.92;;;24.73;;
44772;SDS011;30492;52.088;5.122;2022-09-13T06:07:57;37.28;;;28.33;;
44772;SDS011;30492;52.088;5.122;2022-09-13T06:11:07;43.35;;;26.75;;
44772;SDS011;30492;52.088;5.122;2022-09-13T06:14:13;46.50;;;30.15;;
44772;SDS011;30492;52.088;5.122;2022-09-13T06:17:21;38.50;;;27.33;;
44772;SDS011;30492;52.088;5.122;2022-09-13T06:20:31;34.55;;;24.65;;
44772;SDS011;30492;52.088;5.122;2022-09-13T06:23:36;39.20;;;24.88;;
44772;SDS011;30492;52.088;5.122;2022-09-13T06:26:42;30.15;;;22.25;;
44772;SDS011;30492;52.088;5.122;2022-09-13T06:29:54;29.98;;;18.98;;
44772;SDS011;30492;52.088;5.122;2022-09-13T06:33:03;29.23;;;21.88;;
44772;SDS011;30492;52.088;5.122;2022-09-13T06:36:12;34.40;;;21.63;;
44772;SDS011;30492;52.088;5.122;2022-09-13T06:39:20;26.80;;;21.48;;
44772;SDS011;30492;52.088;5.122;2022-09-13T06:42:27;31.52;;;20.80;;
44772;SDS011;30492;52.088;5.122;2022-09-13T06:45:33;29.25;;;20.98;;
44772;SDS011;30492;52.088;5.122;2022-09-13T06:48:40;23.58;;;17.10;;
44772;SDS011;30492;52.088;5.122;2022-09-13T06:51:50;28.10;;;18.52;;
44772;SDS011;30492;52.088;5.122;2022-09-13T06:54:58;28.42;;;20.27;;
44772;SDS011;30492;52.088;5.122;2022-09-13T06:58:11;19.00;;;14.50;;
44772;SDS011;30492;52.088;5.122;2022-09-13T07:01:20;21.25;;;15.88;;
44772;SDS011;30492;52.088;5.122;2022-09-13T07:04:29;24.00;;;16.48;;
44772;SDS011;30492;52.088;5.122;2022-09-13T07:07:44;25.30;;;19.20;;
44772;SDS011;30492;52.088;5.122;2022-09-13T07:10:56;22.55;;;17.00;;
44772;SDS011;30492;52.088;5.122;2022-09-13T07:14:14;24.33;;;16.58;;
44772;SDS011;30492;52.088;5.122;2022-09-13T07:17:22;25.20;;;18.30;;
44772;SDS011;30492;52.088;5.122;2022-09-13T07:20:29;22.00;;;15.00;;
44772;SDS011;30492;52.088;5.122;2022-09-13T07:23:39;19.90;;;13.30;;
44772;SDS011;30492;52.088;5.122;2022-09-13T07:26:53;15.15;;;11.07;;
44772;SDS011;30492;52.088;5.122;2022-09-13T07:29:59;23.80;;;16.70;;
44772;SDS011;30492;52.088;5.122;2022-09-13T07:33:04;17.55;;;12.95;;
44772;SDS011;30492;52.088;5.122;2022-09-13T07:36:09;12.40;;;9.60;;
44772;SDS011;30492;52.088;5.122;2022-09-13T07:39:31;16.98;;;13.68;;
44772;SDS011;30492;52.088;5.122;2022-09-13T07:42:36;16.40;;;11.48;;
44772;SDS011;30492;52.088;5.122;2022-09-13T07:45:44;15.68;;;10.65;;
44772;SDS011;30492;52.088;5.122;2022-09-13T07:48:55;15.18;;;10.38;;
44772;SDS011;30492;52.088;5.122;2022-09-13T07:52:01;15.27;;;9.13;;
44772;SDS011;30492;52.088;5.122;2022-09-13T07:55:08;16.08;;;9.10;;
44772;SDS011;30492;52.088;5.122;2022-09-13T07:58:13;8.63;;;5.90;;
44772;SDS011;30492;52.088;5.122;2022-09-13T08:01:21;10.52;;;5.35;;
44772;SDS011;30492;52.088;5.122;2022-09-13T08:04:28;9.85;;;5.13;;
44772;SDS011;30492;52.088;5.122;2022-09-13T08:07:33;11.07;;;5.68;;
44772;SDS011;30492;52.088;5.122;2022-09-13T08:10:41;7.15;;;4.25;;
44772;SDS011;30492;52.088;5.122;2022-09-13T08:13:47;8.18;;;5.22;;
44772;SDS011;30492;52.088;5.122;2022-09-13T08:16:54;9.50;;;4.60;;
44772;SDS011;30492;52.088;5.122;2022-09-13T08:20:07;3.50;;;3.05;;
44772;SDS011;30492;52.088;5.122;2022-09-13T08:23:13;8.90;;;3.75;;
44772;SDS011;30492;52.088;5.122;2022-09-13T08:26:19;9.15;;;3.45;;
44772;SDS011;30492;52.088;5.122;2022-09-13T08:29:24;8.85;;;4.20;;
44772;SDS011;30492;52.088;5.122;2022-09-13T08:32:40;7.45;;;4.10;;
44772;SDS011;30492;52.088;5.122;2022-09-13T08:35:48;6.40;;;4.30;;
44772;SDS011;30492;52.088;5.122;2022-09-13T08:38:55;13.45;;;4.65;;
44772;SDS011;30492;52.088;5.122;2022-09-13T08:42:17;7.35;;;2.92;;
44772;SDS011;30492;52.088;5.122;2022-09-13T08:45:47;10.82;;;3.17;;
44772;SDS011;30492;52.088;5.122;2022-09-13T08:48:58;7.65;;;1.95;;
44772;SDS011;30492;52.088;5.122;2022-09-13T08:52:11;2.58;;;1.85;;
44772;SDS011;30492;52.088;5.122;2022-09-13T08:59:14;5.60;;;2.38;;
44772;SDS011;30492;52.088;5.122;2022-09-13T09:02:46;4.93;;;2.35;;
44772;SDS011;30492;52.088;5.122;2022-09-13T09:06:00;4.03;;;1.45;;
44772;SDS011;30492;52.088;5.122;2022-09-13T09:09:19;4.70;;;1.55;;
44772;SDS011;30492;52.088;5.122;2022-09-13T09:12:30;2.33;;;1.20;;
44772;SDS011;30492;52.088;5.122;2022-09-13T09:15:41;3.88;;;1.08;;
44772;SDS011;30492;52.088;5.122;2022-09-13T09:18:51;4.25;;;1.38;;
44772;SDS011;30492;52.088;5.122;2022-09-13T09:22:00;3.55;;;1.42;;
44772;SDS011;30492;52.088;5.122;2022-09-13T09:25:09;2.60;;;1.00;;
44772;SDS011;30492;52.088;5.122;2022-09-13T09:28:16;4.85;;;1.52;;
44772;SDS011;30492;52.088;5.122;2022-09-13T09:31:25;4.45;;;1.30;;
44772;SDS011;30492;52.088;5.122;2022-09-13T09:34:41;3.45;;;1.10;;
44772;SDS011;30492;52.088;5.122;2022-09-13T09:38:02;3.45;;;1.08;;
44772;SDS011;30492;52.088;5.122;2022-09-13T09:41:24;8.25;;;1.45;;
44772;SDS011;30492;52.088;5.122;2022-09-13T09:44:32;4.22;;;1.30;;
44772;SDS011;30492;52.088;5.122;2022-09-13T09:47:40;3.97;;;1.40;;
44772;SDS011;30492;52.088;5.122;2022-09-13T09:50:50;2.78;;;1.00;;
44772;SDS011;30492;52.088;5.122;2022-09-13T09:54:01;1.95;;;1.05;;
44772;SDS011;30492;52.088;5.122;2022-09-13T09:57:08;4.70;;;1.35;;
44772;SDS011;30492;52.088;5.122;2022-09-13T10:00:16;6.53;;;1.50;;
44772;SDS011;30492;52.088;5.122;2022-09-13T10:03:36;8.30;;;1.50;;
44772;SDS011;30492;52.088;5.122;2022-09-13T10:07:08;3.00;;;1.35;;
44772;SDS011;30492;52.088;5.122;2022-09-13T10:10:23;7.65;;;2.20;;
44772;SDS011;30492;52.088;5.122;2022-09-13T10:13:31;4.93;;;1.52;;
44772;SDS011;30492;52.088;5.122;2022-09-13T10:16:37;3.90;;;1.17;;
44772;SDS011;30492;52.088;5.122;2022-09-13T10:19:52;3.33;;;1.52;;
44772;SDS011;30492;52.088;5.122;2022-09-13T10:23:10;8.50;;;1.60;;
44772;SDS011;30492;52.088;5.122;2022-09-13T10:26:27;3.33;;;1.45;;
44772;SDS011;30492;52.088;5.122;2022-09-13T10:29:38;9.18;;;1.60;;
44772;SDS011;30492;52.088;5.122;2022-09-13T10:32:53;2.28;;;1.10;;
44772;SDS011;30492;52.088;5.122;2022-09-13T10:36:02;3.78;;;1.10;;
44772;SDS011;30492;52.088;5.122;2022-09-13T10:39:13;3.17;;;1.10;;
44772;SDS011;30492;52.088;5.122;2022-09-13T10:42:23;3.38;;;1.20;;
44772;SDS011;30492;52.088;5.122;2022-09-13T10:45:32;6.10;;;1.50;;
44772;SDS011;30492;52.088;5.122;2022-09-13T10:48:43;7.80;;;2.47;;
44772;SDS011;30492;52.088;5.122;2022-09-13T10:51:51;3.00;;;1.33;;
44772;SDS011;30492;52.088;5.122;2022-09-13T10:58:45;3.78;;;1.20;;
44772;SDS011;30492;52.088;5.122;2022-09-13T11:01:54;3.60;;;1.33;;
44772;SDS011;30492;52.088;5.122;2022-09-13T11:05:28;10.88;;;2.15;;
44772;SDS011;30492;52.088;5.122;2022-09-13T11:08:43;5.50;;;1.30;;
44772;SDS011;30492;52.088;5.122;2022-09-13T11:12:01;3.42;;;1.00;;
44772;SDS011;30492;52.088;5.122;2022-09-13T11:15:17;1.52;;;0.80;;
44772;SDS011;30492;52.088;5.122;2022-09-13T11:22:31;9.25;;;1.75;;
44772;SDS011;30492;52.088;5.122;2022-09-13T11:25:59;3.35;;;1.40;;
44772;SDS011;30492;52.088;5.122;2022-09-13T11:29:26;5.82;;;1.58;;
44772;SDS011;30492;52.088;5.122;2022-09-13T11:32:57;7.25;;;1.40;;
44772;SDS011;30492;52.088;5.122;2022-09-13T11:36:24;3.88;;;1.23;;
44772;SDS011;30492;52.088;5.122;2022-09-13T11:39:51;4.25;;;1.15;;
44772;SDS011;30492;52.088;5.122;2022-09-13T11:47:25;2.65;;;1.00;;
44772;SDS011;30492;52.088;5.122;2022-09-13T11:50:50;6.40;;;1.40;;
44772;SDS011;30492;52.088;5.122;2022-09-13T11:54:14;4.30;;;1.70;;
44772;SDS011;30492;52.088;5.122;2022-09-13T11:57:26;9.57;;;2.00;;
44772;SDS011;30492;52.088;5.122;2022-09-13T12:00:39;6.72;;;1.30;;
44772;SDS011;30492;52.088;5.122;2022-09-13T12:03:47;5.25;;;1.23;;
44772;SDS011;30492;52.088;5.122;2022-09-13T12:07:01;5.50;;;1.48;;
44772;SDS011;30492;52.088;5.122;2022-09-13T12:10:21;9.02;;;1.70;;
44772;SDS011;30492;52.088;5.122;2022-09-13T12:13:39;7.80;;;2.15;;
44772;SDS011;30492;52.088;5.122;2022-09-13T12:16:53;8.15;;;1.40;;
44772;SDS011;30492;52.088;5.122;2022-09-13T12:20:03;10.07;;;1.58;;
44772;SDS011;30492;52.088;5.122;2022-09-13T12:23:11;11.20;;;1.73;;
44772;SDS011;30492;52.088;5.122;2022-09-13T12:26:24;18.30;;;2.10;;
44772;SDS011;30492;52.088;5.122;2022-09-13T12:29:34;8.85;;;2.03;;
44772;SDS011;30492;52.088;5.122;2022-09-13T12:32:45;5.43;;;1.50;;
44772;SDS011;30492;52.088;5.122;2022-09-13T12:39:25;7.47;;;1.80;;
44772;SDS011;30492;52.088;5.122;2022-09-13T12:42:56;3.22;;;1.55;;
44772;SDS011;30492;52.088;5.122;2022-09-13T12:46:18;9.18;;;1.90;;
44772;SDS011;30492;52.088;5.122;2022-09-13T12:49:41;6.95;;;1.75;;
44772;SDS011;30492;52.088;5.122;2022-09-13T12:53:02;4.90;;;1.48;;
44772;SDS011;30492;52.088;5.122;2022-09-13T12:56:24;6.18;;;1.30;;
44772;SDS011;30492;52.088;5.122;2022-09-13T12:59:50;4.38;;;1.10;;
44772;SDS011;30492;52.088;5.122;2022-09-13T13:03:15;7.30;;;1.30;;
44772;SDS011;30492;52.088;5.122;2022-09-13T13:06:29;6.07;;;1.67;;
44772;SDS011;30492;52.088;5.122;2022-09-13T13:09:42;7.80;;;1.30;;
44772;SDS011;30492;52.088;5.122;2022-09-13T13:12:53;5.78;;;1.13;;
44772;SDS011;30492;52.088;5.122;2022-09-13T13:16:19;3.97;;;1.45;;
44772;SDS011;30492;52.088;5.122;2022-09-13T13:19:27;5.45;;;2.50;;
44772;SDS011;30492;52.088;5.122;2022-09-13T13:22:50;6.13;;;0.80;;
44772;SDS011;30492;52.088;5.122;2022-09-13T13:26:00;5.15;;;1.35;;
44772;SDS011;30492;52.088;5.122;2022-09-13T13:29:11;7.57;;;1.55;;
44772;SDS011;30492;52.088;5.122;2022-09-13T13:32:22;4.50;;;1.08;;
44772;SDS011;30492;52.088;5.122;2022-09-13T13:35:29;9.80;;;1.52;;
44772;SDS011;30492;52.088;5.122;2022-09-13T13:38:46;11.57;;;1.75;;
44772;SDS011;30492;52.088;5.122;2022-09-13T13:41:52;5.65;;;1.23;;
44772;SDS011;30492;52.088;5.122;2022-09-13T13:45:21;9.05;;;1.80;;
44772;SDS011;30492;52.088;5.122;2022-09-13T13:48:43;6.70;;;1.95;;
44772;SDS011;30492;52.088;5.122;2022-09-13T13:51:59;6.43;;;1.52;;
44772;SDS011;30492;52.088;5.122;2022-09-13T13:55:47;6.75;;;1.33;;
44772;SDS011;30492;52.088;5.122;2022-09-13T13:58:57;3.50;;;1.10;;
44772;SDS011;30492;52.088;5.122;2022-09-13T14:02:09;4.57;;;1.13;;
44772;SDS011;30492;52.088;5.122;2022-09-13T14:05:20;4.32;;;1.23;;
44772;SDS011;30492;52.088;5.122;2022-09-13T14:08:43;3.17;;;0.98;;
44772;SDS011;30492;52.088;5.122;2022-09-13T14:12:20;6.43;;;1.00;;
44772;SDS011;30492;52.088;5.122;2022-09-13T14:15:41;6.05;;;1.50;;
44772;SDS011;30492;52.088;5.122;2022-09-13T14:18:57;4.75;;;1.10;;
44772;SDS011;30492;52.088;5.122;2022-09-13T14:22:26;4.47;;;0.90;;
44772;SDS011;30492;52.088;5.122;2022-09-13T14:25:31;5.53;;;0.90;;
44772;SDS011;30492;52.088;5.122;2022-09-13T14:28:38;8.48;;;1.55;;
44772;SDS011;30492;52.088;5.122;2022-09-13T14:31:44;7.50;;;1.10;;
44772;SDS011;30492;52.088;5.122;2022-09-13T14:34:55;4.55;;;1.17;;
44772;SDS011;30492;52.088;5.122;2022-09-13T14:38:11;4.03;;;1.00;;
44772;SDS011;30492;52.088;5.122;2022-09-13T14:41:22;2.28;;;0.75;;
44772;SDS011;30492;52.088;5.122;2022-09-13T14:44:35;2.97;;;1.10;;
44772;SDS011;30492;52.088;5.122;2022-09-13T14:47:43;9.73;;;0.95;;
44772;SDS011;30492;52.088;5.122;2022-09-13T14:50:55;6.18;;;1.30;;
44772;SDS011;30492;52.088;5.122;2022-09-13T14:54:05;5.22;;;1.30;;
44772;SDS011;30492;52.088;5.122;2022-09-13T14:57:22;10.75;;;1.17;;
44772;SDS011;30492;52.088;5.122;2022-09-13T15:00:34;14.38;;;2.45;;
44772;SDS011;30492;52.088;5.122;2022-09-13T15:03:52;4.40;;;1.30;;
44772;SDS011;30492;52.088;5.122;2022-09-13T15:07:07;5.93;;;1.58;;
44772;SDS011;30492;52.088;5.122;2022-09-13T15:10:24;9.95;;;1.30;;
44772;SDS011;30492;52.088;5.122;2022-09-13T15:20:02;7.28;;;1.42;;
44772;SDS011;30492;52.088;5.122;2022-09-13T15:23:10;12.38;;;1.60;;
44772;SDS011;30492;52.088;5.122;2022-09-13T15:26:22;5.40;;;1.15;;
44772;SDS011;30492;52.088;5.122;2022-09-13T15:29:29;7.38;;;2.00;;
44772;SDS011;30492;52.088;5.122;2022-09-13T15:32:40;7.22;;;3.60;;
44772;SDS011;30492;52.088;5.122;2022-09-13T15:35:46;5.63;;;2.00;;
44772;SDS011;30492;52.088;5.122;2022-09-13T15:38:59;5.32;;;2.05;;
44772;SDS011;30492;52.088;5.122;2022-09-13T15:42:06;5.75;;;2.15;;
44772;SDS011;30492;52.088;5.122;2022-09-13T15:45:11;7.45;;;2.50;;
44772;SDS011;30492;52.088;5.122;2022-09-13T15:48:24;4.93;;;1.90;;
44772;SDS011;30492;52.088;5.122;2022-09-13T15:51:32;3.38;;;1.40;;
44772;SDS011;30492;52.088;5.122;2022-09-13T15:54:40;7.10;;;1.90;;
44772;SDS011;30492;52.088;5.122;2022-09-13T15:57:46;3.83;;;1.55;;
44772;SDS011;30492;52.088;5.122;2022-09-13T16:00:53;3.13;;;1.15;;
44772;SDS011;30492;52.088;5.122;2022-09-13T16:03:59;5.40;;;1.60;;
44772;SDS011;30492;52.088;5.122;2022-09-13T16:07:07;3.15;;;1.30;;
44772;SDS011;30492;52.088;5.122;2022-09-13T16:10:15;5.05;;;1.08;;
44772;SDS011;30492;52.088;5.122;2022-09-13T16:13:22;6.03;;;1.00;;
44772;SDS011;30492;52.088;5.122;2022-09-13T16:16:26;6.97;;;1.10;;
44772;SDS011;30492;52.088;5.122;2022-09-13T16:19:39;1.83;;;0.60;;
44772;SDS011;30492;52.088;5.122;2022-09-13T16:22:49;6.15;;;0.88;;
44772;SDS011;30492;52.088;5.122;2022-09-13T16:26:01;7.57;;;1.40;;
44772;SDS011;30492;52.088;5.122;2022-09-13T16:32:15;5.68;;;1.10;;
44772;SDS011;30492;52.088;5.122;2022-09-13T16:35:23;5.80;;;1.40;;
44772;SDS011;30492;52.088;5.122;2022-09-13T16:38:30;3.92;;;1.02;;
44772;SDS011;30492;52.088;5.122;2022-09-13T16:41:36;3.58;;;0.90;;
44772;SDS011;30492;52.088;5.122;2022-09-13T16:44:42;3.83;;;0.98;;
44772;SDS011;30492;52.088;5.122;2022-09-13T16:47:47;3.70;;;0.98;;
44772;SDS011;30492;52.088;5.122;2022-09-13T16:51:01;2.55;;;0.95;;
44772;SDS011;30492;52.088;5.122;2022-09-13T16:54:07;4.00;;;1.20;;
44772;SDS011;30492;52.088;5.122;2022-09-13T16:57:12;3.10;;;1.30;;
44772;SDS011;30492;52.088;5.122;2022-09-13T17:00:18;4.07;;;1.10;;
44772;SDS011;30492;52.088;5.122;2022-09-13T17:03:23;9.73;;;1.35;;
44772;SDS011;30492;52.088;5.122;2022-09-13T17:06:40;3.45;;;0.90;;
44772;SDS011;30492;52.088;5.122;2022-09-13T17:09:46;2.55;;;0.80;;
44772;SDS011;30492;52.088;5.122;2022-09-13T17:12:51;5.35;;;1.35;;
44772;SDS011;30492;52.088;5.122;2022-09-13T17:15:57;4.68;;;1.00;;
44772;SDS011;30492;52.088;5.122;2022-09-13T17:19:04;2.22;;;1.13;;
44772;SDS011;30492;52.088;5.122;2022-09-13T17:22:12;3.97;;;0.82;;
44772;SDS011;30492;52.088;5.122;2022-09-13T17:25:18;5.38;;;0.85;;
44772;SDS011;30492;52.088;5.122;2022-09-13T17:28:26;5.72;;;1.10;;
44772;SDS011;30492;52.088;5.122;2022-09-13T17:31:46;4.65;;;1.10;;
44772;SDS011;30492;52.088;5.122;2022-09-13T17:34:52;6.25;;;1.10;;
44772;SDS011;30492;52.088;5.122;2022-09-13T17:38:00;3.40;;;0.82;;
44772;SDS011;30492;52.088;5.122;2022-09-13T17:41:08;3.25;;;0.80;;
44772;SDS011;30492;52.088;5.122;2022-09-13T17:44:16;3.33;;;0.93;;
44772;SDS011;30492;52.088;5.122;2022-09-13T17:47:21;6.45;;;1.00;;
44772;SDS011;30492;52.088;5.122;2022-09-13T17:50:26;4.93;;;1.38;;
44772;SDS011;30492;52.088;5.122;2022-09-13T17:53:34;4.55;;;1.02;;
44772;SDS011;30492;52.088;5.122;2022-09-13T17:56:41;5.05;;;1.20;;
44772;SDS011;30492;52.088;5.122;2022-09-13T17:59:47;2.53;;;0.80;;
44772;SDS011;30492;52.088;5.122;2022-09-13T18:02:52;4.55;;;0.93;;
44772;SDS011;30492;52.088;5.122;2022-09-13T18:05:57;4.15;;;1.10;;
44772;SDS011;30492;52.088;5.122;2022-09-13T18:09:05;4.93;;;1.00;;
44772;SDS011;30492;52.088;5.122;2022-09-13T18:12:11;5.67;;;1.50;;
44772;SDS011;30492;52.088;5.122;2022-09-13T18:15:16;7.38;;;1.27;;
44772;SDS011;30492;52.088;5.122;2022-09-13T18:18:21;5.43;;;0.77;;
44772;SDS011;30492;52.088;5.122;2022-09-13T18:21:26;5.72;;;1.38;;
44772;SDS011;30492;52.088;5.122;2022-09-13T18:24:32;2.92;;;0.85;;
44772;SDS011;30492;52.088;5.122;2022-09-13T18:27:38;4.78;;;1.38;;
44772;SDS011;30492;52.088;5.122;2022-09-13T18:30:50;5.68;;;1.63;;
44772;SDS011;30492;52.088;5.122;2022-09-13T18:33:55;5.55;;;1.63;;
44772;SDS011;30492;52.088;5.122;2022-09-13T18:37:02;5.03;;;1.20;;
44772;SDS011;30492;52.088;5.122;2022-09-13T18:40:11;5.38;;;1.92;;
44772;SDS011;30492;52.088;5.122;2022-09-13T18:43:24;7.63;;;1.50;;
44772;SDS011;30492;52.088;5.122;2022-09-13T18:46:30;4.72;;;1.08;;
44772;SDS011;30492;52.088;5.122;2022-09-13T18:49:36;4.25;;;1.10;;
44772;SDS011;30492;52.088;5.122;2022-09-13T18:52:45;5.07;;;1.13;;
44772;SDS011;30492;52.088;5.122;2022-09-13T18:55:52;4.50;;;1.10;;
44772;SDS011;30492;52.088;5.122;2022-09-13T18:59:04;8.15;;;1.45;;
44772;SDS011;30492;52.088;5.122;2022-09-13T19:02:10;8.25;;;0.98;;
44772;SDS011;30492;52.088;5.122;2022-09-13T19:05:19;7.57;;;1.48;;
44772;SDS011;30492;52.088;5.122;2022-09-13T19:08:36;8.43;;;1.45;;
44772;SDS011;30492;52.088;5.122;2022-09-13T19:11:49;5.80;;;1.27;;
44772;SDS011;30492;52.088;5.122;2022-09-13T19:14:57;8.60;;;1.00;;
44772;SDS011;30492;52.088;5.122;2022-09-13T19:18:12;5.45;;;1.40;;
44772;SDS011;30492;52.088;5.122;2022-09-13T19:21:17;5.18;;;1.02;;
44772;SDS011;30492;52.088;5.122;2022-09-13T19:24:24;7.60;;;1.43;;
44772;SDS011;30492;52.088;5.122;2022-09-13T19:27:39;6.60;;;1.40;;
44772;SDS011;30492;52.088;5.122;2022-09-13T19:30:52;5.00;;;1.40;;
44772;SDS011;30492;52.088;5.122;2022-09-13T19:34:00;6.75;;;1.00;;
44772;SDS011;30492;52.088;5.122;2022-09-13T19:37:09;9.65;;;1.20;;
44772;SDS011;30492;52.088;5.122;2022-09-13T19:40:15;5.13;;;1.10;;
44772;SDS011;30492;52.088;5.122;2022-09-13T19:43:24;5.95;;;1.20;;